createdAt,value
2023-02-19T00:00:33.946Z,8.50
2023-02-19T00:03:35.480Z,8.50
2023-02-19T00:06:36.886Z,8.80
2023-02-19T00:09:37.947Z,8.70
2023-02-19T00:12:38.906Z,8.40
2023-02-19T00:15:39.858Z,8.40
2023-02-19T00:18:41.948Z,8.40
2023-02-19T00:21:43.266Z,8.40
2023-02-19T00:24:43.961Z,8.50
2023-02-19T00:27:44.785Z,8.20
2023-02-19T00:30:45.731Z,8.00
2023-02-19T00:33:48.716Z,7.90
2023-02-19T00:36:49.746Z,7.80
2023-02-19T00:39:50.871Z,7.60
2023-02-19T00:42:52.314Z,7.40
2023-02-19T00:45:53.681Z,7.40
2023-02-19T00:48:55.539Z,7.40
2023-02-19T00:51:56.553Z,7.50
2023-02-19T00:54:57.697Z,7.20
2023-02-19T00:57:58.466Z,7.30
2023-02-19T01:01:00.807Z,7.20
2023-02-19T01:04:01.958Z,7.30
2023-02-19T01:07:02.890Z,7.70
2023-02-19T01:10:05.510Z,7.80
2023-02-19T01:13:06.622Z,8.00
2023-02-19T01:16:22.553Z,8.10
2023-02-19T01:19:23.334Z,8.10
2023-02-19T01:22:24.544Z,7.90
2023-02-19T01:25:25.911Z,7.70
2023-02-19T01:28:26.789Z,7.70
2023-02-19T01:31:29.568Z,7.80
2023-02-19T01:34:33.421Z,7.80
2023-02-19T01:37:34.808Z,7.60
2023-02-19T01:40:36.606Z,7.70
2023-02-19T01:44:03.198Z,7.70
2023-02-19T01:47:04.339Z,7.60
2023-02-19T01:50:05.511Z,7.60
2023-02-19T01:53:09.254Z,7.60
2023-02-19T01:56:15.433Z,7.50
2023-02-19T01:59:18.593Z,7.60
2023-02-19T02:02:19.785Z,7.80
2023-02-19T02:06:17.397Z,7.70
2023-02-19T02:09:45.724Z,7.70
2023-02-19T02:12:51.029Z,7.60
2023-02-19T02:16:14.644Z,7.70
2023-02-19T02:19:49.417Z,7.70
2023-02-19T02:23:21.026Z,7.70
2023-02-19T02:26:56.008Z,7.80
2023-02-19T02:30:36.190Z,8.00
2023-02-19T02:33:57.345Z,8.10
2023-02-19T02:37:00.549Z,8.00
2023-02-19T02:40:05.014Z,8.00
2023-02-19T02:43:07.057Z,8.00
2023-02-19T02:46:19.160Z,8.00
2023-02-19T02:49:25.002Z,8.00
2023-02-19T02:52:45.569Z,8.00
2023-02-19T02:55:51.986Z,8.00
2023-02-19T02:58:56.886Z,8.00
2023-02-19T03:02:12.492Z,8.00
2023-02-19T03:05:40.082Z,8.10
2023-02-19T03:08:45.193Z,8.10
2023-02-19T03:12:09.356Z,8.00
2023-02-19T03:15:34.874Z,7.90
2023-02-19T03:19:01.301Z,7.90
2023-02-19T03:22:24.963Z,8.00
2023-02-19T03:25:52.841Z,7.80
2023-02-19T03:29:24.185Z,7.80
2023-02-19T03:32:42.417Z,7.70
2023-02-19T03:36:02.812Z,7.70
2023-02-19T03:39:09.219Z,7.70
2023-02-19T03:42:57.020Z,7.70
2023-02-19T03:46:04.554Z,7.90
2023-02-19T03:49:23.995Z,8.00
2023-02-19T03:52:44.800Z,8.00
2023-02-19T03:56:03.929Z,7.90
2023-02-19T03:59:20.773Z,7.90
2023-02-19T04:03:22.635Z,7.90
2023-02-19T04:06:29.934Z,8.00
2023-02-19T04:09:43.526Z,8.20
2023-02-19T04:13:02.464Z,8.20
2023-02-19T04:16:17.964Z,8.20
2023-02-19T04:19:24.254Z,8.30
2023-02-19T04:22:26.742Z,8.20
2023-02-19T04:25:31.035Z,8.20
2023-02-19T04:28:32.193Z,8.10
2023-02-19T04:31:35.945Z,8.10
2023-02-19T04:34:37.033Z,8.20
2023-02-19T04:37:37.808Z,8.10
2023-02-19T04:40:39.026Z,8.10
2023-02-19T04:43:40.261Z,8.10
2023-02-19T04:46:43.139Z,8.10
2023-02-19T04:49:45.505Z,8.10
2023-02-19T04:52:46.276Z,7.90
2023-02-19T04:55:48.278Z,7.90
2023-02-19T04:58:49.083Z,7.90
2023-02-19T05:01:50.024Z,7.80
2023-02-19T05:04:50.765Z,7.90
2023-02-19T05:07:51.548Z,7.70
2023-02-19T05:10:52.207Z,7.70
2023-02-19T05:13:54.845Z,7.70
2023-02-19T05:16:56.219Z,7.80
2023-02-19T05:19:57.352Z,7.80
2023-02-19T05:22:58.494Z,7.80
2023-02-19T05:25:59.646Z,7.80
2023-02-19T05:29:01.161Z,7.80
2023-02-19T05:32:02.360Z,7.70
2023-02-19T05:35:02.986Z,7.70
2023-02-19T05:38:06.105Z,7.70
2023-02-19T05:41:14.318Z,7.70
2023-02-19T05:44:15.631Z,7.70
2023-02-19T05:47:16.317Z,7.60
2023-02-19T05:50:17.319Z,7.70
2023-02-19T05:53:18.142Z,7.70
2023-02-19T05:56:31.202Z,7.70
2023-02-19T05:59:32.081Z,7.70
2023-02-19T06:02:32.959Z,7.70
2023-02-19T06:05:33.824Z,7.60
2023-02-19T06:08:34.637Z,7.60
2023-02-19T06:11:36.089Z,7.60
2023-02-19T06:14:37.142Z,7.60
2023-02-19T06:17:38.504Z,7.60
2023-02-19T06:20:39.287Z,7.60
2023-02-19T06:23:41.146Z,7.50
2023-02-19T06:26:42.027Z,7.50
2023-02-19T06:29:43.398Z,7.50
2023-02-19T06:32:44.530Z,7.50
2023-02-19T06:35:45.664Z,7.60
2023-02-19T06:38:46.695Z,7.60
2023-02-19T06:41:47.579Z,7.60
2023-02-19T06:44:49.091Z,7.60
2023-02-19T06:47:50.277Z,7.60
2023-02-19T06:50:51.404Z,7.70
2023-02-19T06:53:53.513Z,7.70
2023-02-19T06:56:54.427Z,7.70
2023-02-19T06:59:55.670Z,7.70
2023-02-19T07:02:56.804Z,7.70
2023-02-19T07:06:00.959Z,7.70
2023-02-19T07:09:03.736Z,7.70
2023-02-19T07:12:05.578Z,7.80
2023-02-19T07:15:06.943Z,7.70
2023-02-19T07:18:10.583Z,7.80
2023-02-19T07:21:14.648Z,7.80
2023-02-19T07:24:15.669Z,7.80
2023-02-19T07:27:16.382Z,7.80
2023-02-19T07:30:17.915Z,7.80
2023-02-19T07:33:19.020Z,7.90
2023-02-19T07:36:22.894Z,7.90
2023-02-19T07:39:23.547Z,7.80
2023-02-19T07:42:24.343Z,7.80
2023-02-19T07:45:25.544Z,7.90
2023-02-19T07:48:26.681Z,7.90
2023-02-19T07:51:28.021Z,7.90
2023-02-19T07:54:28.745Z,7.90
2023-02-19T07:57:31.376Z,8.00
2023-02-19T08:00:32.559Z,8.00
2023-02-19T08:03:33.944Z,8.00
2023-02-19T08:06:35.017Z,8.00
2023-02-19T08:09:36.045Z,8.00
2023-02-19T08:12:55.215Z,8.10
2023-02-19T08:16:16.032Z,8.20
2023-02-19T08:19:20.360Z,8.20
2023-02-19T08:22:21.541Z,8.20
2023-02-19T08:25:22.545Z,8.30
2023-02-19T08:28:23.706Z,8.30
2023-02-19T08:31:25.312Z,8.30
2023-02-19T08:34:26.303Z,8.30
2023-02-19T08:37:27.687Z,8.30
2023-02-19T08:40:28.712Z,8.30
2023-02-19T08:43:29.547Z,8.30
2023-02-19T08:46:30.232Z,8.30
2023-02-19T08:49:31.154Z,8.30
2023-02-19T08:52:32.862Z,8.30
2023-02-19T08:55:34.250Z,8.30
2023-02-19T08:58:36.309Z,8.30
2023-02-19T09:01:37.437Z,8.40
2023-02-19T09:04:38.677Z,8.40
2023-02-19T09:07:41.199Z,8.40
2023-02-19T09:10:42.348Z,8.50
2023-02-19T09:13:44.569Z,8.60
2023-02-19T09:16:45.854Z,8.70
2023-02-19T09:19:46.674Z,8.80
2023-02-19T09:22:47.649Z,8.80
2023-02-19T09:25:48.326Z,9.00
2023-02-19T09:28:49.550Z,9.00
2023-02-19T09:31:50.515Z,9.00
2023-02-19T09:34:51.291Z,9.10
2023-02-19T09:37:52.174Z,9.10
2023-02-19T09:40:53.606Z,9.10
2023-02-19T09:43:57.900Z,9.30
2023-02-19T09:47:02.199Z,9.20
2023-02-19T09:50:10.395Z,9.20
2023-02-19T09:53:27.344Z,9.20
2023-02-19T09:56:29.317Z,9.30
2023-02-19T09:59:51.622Z,9.40
2023-02-19T10:03:06.857Z,9.50
2023-02-19T10:06:27.121Z,9.50
2023-02-19T10:09:31.153Z,9.40
2023-02-19T10:12:32.944Z,9.60
2023-02-19T10:15:41.539Z,9.80
2023-02-19T10:18:45.259Z,9.70
2023-02-19T10:21:46.859Z,9.60
2023-02-19T10:24:54.295Z,9.70
2023-02-19T10:27:57.628Z,9.80
2023-02-19T10:31:02.116Z,9.60
2023-02-19T10:34:03.245Z,9.60
2023-02-19T10:37:04.697Z,9.70
2023-02-19T10:40:12.872Z,9.80
2023-02-19T10:43:31.770Z,9.80
2023-02-19T10:46:49.930Z,10.00
2023-02-19T10:49:53.236Z,10.10
2023-02-19T10:52:58.569Z,10.10
2023-02-19T10:56:10.592Z,10.40
2023-02-19T10:59:29.674Z,10.30
2023-02-19T11:02:31.900Z,10.40
2023-02-19T11:05:32.689Z,10.10
2023-02-19T11:08:49.481Z,10.40
2023-02-19T11:11:54.651Z,10.50
2023-02-19T11:14:56.204Z,10.40
2023-02-19T11:17:57.897Z,10.50
2023-02-19T11:21:06.005Z,10.40
2023-02-19T11:24:29.026Z,10.40
2023-02-19T11:27:30.072Z,10.40
2023-02-19T11:30:32.620Z,10.70
2023-02-19T11:33:35.278Z,10.90
2023-02-19T11:36:38.426Z,11.00
2023-02-19T11:39:43.690Z,11.30
2023-02-19T11:43:17.914Z,12.70
2023-02-19T11:47:15.550Z,12.80
2023-02-19T11:50:36.635Z,12.80
2023-02-19T11:53:53.858Z,14.40
2023-02-19T11:57:36.168Z,12.40
2023-02-19T12:00:58.711Z,15.70
2023-02-19T12:04:51.120Z,16.30
2023-02-19T12:08:22.255Z,14.80
2023-02-19T12:11:31.794Z,13.80
2023-02-19T12:14:50.271Z,11.50
2023-02-19T12:18:36.004Z,12.10
2023-02-19T12:22:12.122Z,11.40
2023-02-19T12:25:39.865Z,11.50
2023-02-19T12:29:15.662Z,11.20
2023-02-19T12:32:47.368Z,11.00
2023-02-19T12:36:04.197Z,11.30
2023-02-19T12:39:44.220Z,10.70
2023-02-19T12:43:22.242Z,10.70
2023-02-19T12:46:38.567Z,10.70
2023-02-19T12:50:02.502Z,10.60
2023-02-19T12:53:32.313Z,10.80
2023-02-19T12:56:56.741Z,10.70
2023-02-19T13:00:22.395Z,10.90
2023-02-19T13:03:35.606Z,10.70
2023-02-19T13:07:03.519Z,10.60
2023-02-19T13:10:35.793Z,10.50
2023-02-19T13:13:56.283Z,10.80
2023-02-19T13:17:32.025Z,10.50
2023-02-19T13:20:43.436Z,10.30
2023-02-19T13:23:59.570Z,10.30
2023-02-19T13:27:31.297Z,10.30
2023-02-19T13:30:47.927Z,10.20
2023-02-19T13:34:36.810Z,10.30
2023-02-19T13:37:38.153Z,10.30
2023-02-19T13:40:54.379Z,10.20
2023-02-19T13:44:03.383Z,10.10
2023-02-19T13:47:06.476Z,10.30
2023-02-19T13:50:17.447Z,10.50
2023-02-19T13:53:44.781Z,10.80
2023-02-19T13:56:45.514Z,11.60
2023-02-19T13:59:46.859Z,11.10
2023-02-19T14:02:47.934Z,11.10
2023-02-19T14:06:07.794Z,11.30
2023-02-19T14:09:34.421Z,13.00
2023-02-19T14:12:37.564Z,16.00
2023-02-19T14:15:49.129Z,13.00
2023-02-19T14:18:52.842Z,13.60
2023-02-19T14:21:54.247Z,12.70
2023-02-19T14:24:57.142Z,13.50
2023-02-19T14:28:18.149Z,11.50
2023-02-19T14:31:34.213Z,10.90
2023-02-19T14:34:35.998Z,11.90
2023-02-19T14:37:37.425Z,10.70
2023-02-19T14:40:42.014Z,10.50
2023-02-19T14:43:47.318Z,10.40
2023-02-19T14:46:57.609Z,10.20
2023-02-19T14:50:07.434Z,10.10
2023-02-19T14:53:09.694Z,9.90
2023-02-19T14:56:28.190Z,9.80
2023-02-19T14:59:30.774Z,9.90
2023-02-19T15:02:33.025Z,9.80
2023-02-19T15:05:37.020Z,9.70
2023-02-19T15:08:48.592Z,9.60
2023-02-19T15:11:49.753Z,9.60
2023-02-19T15:14:54.955Z,9.60
2023-02-19T15:17:59.699Z,9.60
2023-02-19T15:21:23.275Z,9.60
2023-02-19T15:24:24.737Z,9.60
2023-02-19T15:27:25.889Z,9.60
2023-02-19T15:30:29.799Z,9.60
2023-02-19T15:33:30.963Z,9.50
2023-02-19T15:36:35.087Z,9.50
2023-02-19T15:39:46.663Z,9.50
2023-02-19T15:42:48.180Z,9.50
2023-02-19T15:45:53.422Z,9.40
2023-02-19T15:49:19.578Z,9.40
2023-02-19T15:52:48.010Z,9.30
2023-02-19T15:56:20.450Z,9.30
2023-02-19T15:59:38.892Z,9.30
2023-02-19T16:02:41.113Z,9.30
2023-02-19T16:05:42.273Z,9.30
2023-02-19T16:09:03.806Z,9.30
2023-02-19T16:12:24.740Z,9.30
2023-02-19T16:15:28.390Z,9.20
2023-02-19T16:18:30.076Z,9.20
2023-02-19T16:21:31.086Z,9.10
2023-02-19T16:24:37.509Z,9.10
2023-02-19T16:27:42.130Z,9.10
2023-02-19T16:30:43.561Z,9.10
2023-02-19T16:33:50.005Z,9.00
2023-02-19T16:36:51.231Z,9.00
2023-02-19T16:40:08.164Z,9.00
2023-02-19T16:43:15.297Z,8.90
2023-02-19T16:46:16.176Z,8.90
2023-02-19T16:49:18.350Z,8.80
2023-02-19T16:52:19.233Z,8.80
2023-02-19T16:55:20.697Z,8.70
2023-02-19T16:58:21.901Z,8.70
2023-02-19T17:01:22.973Z,8.70
2023-02-19T17:04:24.450Z,8.70
2023-02-19T17:07:27.586Z,8.70
2023-02-19T17:10:28.890Z,8.70
2023-02-19T17:13:30.351Z,8.60
2023-02-19T17:16:40.472Z,8.60
2023-02-19T17:19:41.802Z,8.60
2023-02-19T17:22:43.584Z,8.60
2023-02-19T17:25:44.382Z,8.60
2023-02-19T17:28:46.044Z,8.50
2023-02-19T17:31:47.227Z,8.60
2023-02-19T17:34:49.781Z,8.50
2023-02-19T17:37:53.209Z,8.50
2023-02-19T17:40:54.473Z,8.50
2023-02-19T17:43:55.931Z,8.50
2023-02-19T17:46:57.134Z,8.40
2023-02-19T17:49:57.869Z,8.50
2023-02-19T17:52:58.880Z,8.40
2023-02-19T17:55:59.905Z,8.40
2023-02-19T17:59:01.138Z,8.40
2023-02-19T18:02:03.362Z,8.40
2023-02-19T18:05:04.583Z,8.40
2023-02-19T18:08:05.761Z,8.40
2023-02-19T18:11:07.918Z,8.50
2023-02-19T18:14:08.806Z,8.40
2023-02-19T18:17:09.516Z,8.40
2023-02-19T18:20:18.229Z,8.40
2023-02-19T18:23:20.854Z,8.40
2023-02-19T18:26:22.088Z,8.30
2023-02-19T18:29:26.100Z,8.30
2023-02-19T18:32:27.303Z,8.20
2023-02-19T18:35:28.041Z,8.20
2023-02-19T18:38:28.912Z,8.20
2023-02-19T18:41:30.146Z,8.20
2023-02-19T18:44:31.457Z,8.20
2023-02-19T18:47:32.261Z,8.20
2023-02-19T18:50:34.990Z,8.20
2023-02-19T18:53:36.262Z,8.20
2023-02-19T18:56:45.777Z,8.20
2023-02-19T18:59:46.989Z,8.20
2023-02-19T19:02:50.488Z,8.10
2023-02-19T19:05:52.270Z,8.10
2023-02-19T19:08:52.918Z,8.10
2023-02-19T19:11:53.629Z,8.10
2023-02-19T19:14:54.351Z,8.10
2023-02-19T19:17:55.147Z,8.10
2023-02-19T19:21:01.746Z,8.10
2023-02-19T19:24:03.063Z,8.10
2023-02-19T19:27:04.222Z,8.10
2023-02-19T19:30:06.737Z,8.10
2023-02-19T19:33:07.884Z,8.10
2023-02-19T19:36:11.578Z,8.00
2023-02-19T19:39:13.052Z,8.10
2023-02-19T19:42:13.886Z,8.10
2023-02-19T19:45:15.938Z,8.00
2023-02-19T19:48:17.950Z,8.00
2023-02-19T19:51:19.148Z,8.00
2023-02-19T19:54:20.246Z,8.00
2023-02-19T19:57:21.338Z,8.00
2023-02-19T20:00:24.534Z,7.90
2023-02-19T20:03:25.557Z,8.00
2023-02-19T20:06:32.160Z,8.00
2023-02-19T20:09:33.875Z,7.90
2023-02-19T20:12:35.005Z,7.90
2023-02-19T20:15:36.248Z,7.90
2023-02-19T20:18:37.096Z,7.90
2023-02-19T20:21:37.851Z,7.90
2023-02-19T20:24:38.843Z,7.90
2023-02-19T20:27:39.873Z,7.90
2023-02-19T20:30:40.813Z,7.90
2023-02-19T20:33:42.171Z,8.00
2023-02-19T20:36:47.869Z,7.90
2023-02-19T20:39:49.021Z,7.90
2023-02-19T20:42:49.820Z,7.90
2023-02-19T20:45:51.081Z,7.80
2023-02-19T20:48:52.047Z,7.90
2023-02-19T20:51:58.165Z,7.80
2023-02-19T20:54:59.329Z,7.80
2023-02-19T20:58:00.095Z,7.80
2023-02-19T21:01:01.351Z,7.80
2023-02-19T21:04:02.262Z,7.80
2023-02-19T21:07:03.454Z,7.80
2023-02-19T21:10:04.558Z,7.70
2023-02-19T21:13:05.381Z,7.70
2023-02-19T21:16:06.852Z,7.70
2023-02-19T21:19:08.385Z,7.60
2023-02-19T21:22:09.539Z,7.50
2023-02-19T21:25:10.994Z,7.60
2023-02-19T21:28:12.616Z,7.60
2023-02-19T21:31:13.999Z,7.60
2023-02-19T21:34:18.651Z,7.60
2023-02-19T21:37:20.069Z,7.60
2023-02-19T21:40:22.207Z,7.60
2023-02-19T21:43:23.132Z,7.60
2023-02-19T21:46:25.389Z,7.50
2023-02-19T21:49:27.430Z,7.50
2023-02-19T21:52:28.972Z,7.60
2023-02-19T21:55:30.048Z,7.50
2023-02-19T21:58:30.973Z,7.60
2023-02-19T22:01:38.879Z,7.50
2023-02-19T22:04:39.648Z,7.50
2023-02-19T22:07:40.364Z,7.50
2023-02-19T22:10:42.652Z,7.50
2023-02-19T22:13:43.545Z,7.50
2023-02-19T22:16:44.513Z,7.40
2023-02-19T22:19:45.346Z,7.40
2023-02-19T22:22:46.624Z,7.40
2023-02-19T22:25:47.466Z,7.40
2023-02-19T22:28:48.353Z,7.40
2023-02-19T22:31:49.284Z,7.40
2023-02-19T22:34:50.511Z,7.40
2023-02-19T22:37:51.865Z,7.40
2023-02-19T22:40:52.850Z,7.30
2023-02-19T22:43:58.710Z,7.30
2023-02-19T22:46:59.599Z,7.30
2023-02-19T22:50:00.889Z,7.30
2023-02-19T22:53:02.311Z,7.30
2023-02-19T22:56:03.650Z,7.20
2023-02-19T22:59:04.466Z,7.20
2023-02-19T23:02:05.247Z,7.20
2023-02-19T23:05:06.697Z,7.20
2023-02-19T23:08:07.822Z,7.20
2023-02-19T23:11:09.310Z,7.20
2023-02-19T23:14:10.108Z,7.20
2023-02-19T23:17:11.269Z,7.20
2023-02-19T23:20:12.927Z,7.20
2023-02-19T23:23:13.555Z,7.20
2023-02-19T23:26:16.639Z,7.20
2023-02-19T23:29:26.716Z,7.20
2023-02-19T23:32:27.758Z,7.20
2023-02-19T23:35:28.654Z,7.10
2023-02-19T23:38:29.464Z,7.10
2023-02-19T23:41:30.142Z,7.10
2023-02-19T23:44:31.510Z,7.10
2023-02-19T23:47:32.583Z,7.10
2023-02-19T23:50:33.361Z,7.10
2023-02-19T23:53:34.261Z,7.00
2023-02-19T23:56:36.113Z,7.00
2023-02-19T23:59:37.339Z,7.10
